Time;durP1;ratioP1;P1;durP2;ratioP2;P2;SDS_P1;SDS_P2;PMS_P1;PMS_P2;Temp;Humidity;BMP_temperature;BMP_pressure;BME280_temperature;BME280_humidity;BME280_pressure;Samples;Min_cycle;Max_cycle;Signal;HPM_P1;HPM_P2
2023/03/31 00:00:43;;;;;;;7.13;6.43;;;;;;;;;;6334680;22;20011;-78
2023/03/31 00:03:09;;;;;;;8.20;7.53;;;;;;;;;;6334815;22;20011;-78
2023/03/31 00:05:36;;;;;;;8.68;7.15;;;;;;;;;;6334695;22;20013;-77
2023/03/31 00:08:02;;;;;;;7.93;6.95;;;;;;;;;;6334683;22;20010;-76
2023/03/31 00:10:32;;;;;;;7.78;6.95;;;;;;;;;;6334951;22;20014;-78
2023/03/31 00:12:59;;;;;;;7.40;6.80;;;;;;;;;;6308123;22;20014;-78
2023/03/31 00:15:25;;;;;;;6.88;6.38;;;;;;;;;;6335667;22;20017;-78
2023/03/31 00:17:51;;;;;;;7.57;6.50;;;;;;;;;;6308264;22;20007;-79
2023/03/31 00:20:17;;;;;;;8.10;7.50;;;;;;;;;;6308154;22;20025;-77
2023/03/31 00:22:45;;;;;;;7.53;6.93;;;;;;;;;;6335215;22;20076;-78
2023/03/31 00:25:12;;;;;;;7.47;6.88;;;;;;;;;;6335696;22;20007;-78
2023/03/31 00:27:40;;;;;;;7.68;6.97;;;;;;;;;;6335197;22;20086;-79
2023/03/31 00:30:07;;;;;;;8.18;7.35;;;;;;;;;;6335255;22;20018;-78
2023/03/31 00:32:33;;;;;;;9.52;8.80;;;;;;;;;;6335087;22;20412;-78
2023/03/31 00:35:01;;;;;;;7.07;6.57;;;;;;;;;;6335518;22;20451;-78
2023/03/31 00:37:28;;;;;;;8.35;7.60;;;;;;;;;;6334517;22;20060;-78
2023/03/31 00:39:54;;;;;;;8.30;7.60;;;;;;;;;;6308106;22;20015;-79
2023/03/31 00:42:20;;;;;;;8.48;7.68;;;;;;;;;;6335572;22;20006;-77
2023/03/31 00:45:04;;;;;;;8.27;7.47;;;;;;;;;;6334984;22;20332;-77
2023/03/31 00:47:30;;;;;;;6.95;6.35;;;;;;;;;;6307196;22;20404;-78
2023/03/31 00:49:56;;;;;;;8.77;7.97;;;;;;;;;;6335188;22;20098;-77
2023/03/31 00:52:27;;;;;;;8.77;8.02;;;;;;;;;;6307640;22;20521;-78
2023/03/31 00:54:57;;;;;;;8.52;7.82;;;;;;;;;;6307645;22;20451;-78
2023/03/31 00:57:24;;;;;;;7.57;6.97;;;;;;;;;;6307463;22;20011;-78
2023/03/31 00:59:51;;;;;;;7.25;6.65;;;;;;;;;;6307577;22;20061;-76
2023/03/31 01:02:19;;;;;;;6.97;6.13;;;;;;;;;;6307652;22;20010;-77
2023/03/31 01:04:46;;;;;;;7.57;7.03;;;;;;;;;;6307291;22;20371;-77
2023/03/31 01:07:32;;;;;;;7.18;6.47;;;;;;;;;;6307578;22;20412;-77
2023/03/31 01:09:59;;;;;;;6.50;5.90;;;;;;;;;;6334531;22;20528;-78
2023/03/31 01:12:25;;;;;;;6.75;6.25;;;;;;;;;;6334814;22;20083;-77
2023/03/31 01:14:51;;;;;;;6.93;6.40;;;;;;;;;;6307501;22;20060;-78
2023/03/31 01:17:18;;;;;;;10.85;7.68;;;;;;;;;;6308074;22;20015;-79
2023/03/31 01:20:11;;;;;;;4.72;4.38;;;;;;;;;;6334734;22;20692;-78
2023/03/31 01:22:48;;;;;;;7.22;6.63;;;;;;;;;;6283085;22;20275;-78
2023/03/31 01:25:17;;;;;;;7.38;6.70;;;;;;;;;;6335046;22;20392;-78
2023/03/31 01:27:49;;;;;;;8.80;6.65;;;;;;;;;;6334942;22;20011;-78
2023/03/31 01:30:35;;;;;;;6.47;6.00;;;;;;;;;;6308735;22;20018;-79
2023/03/31 01:33:20;;;;;;;7.38;6.70;;;;;;;;;;6335275;22;20014;-79
2023/03/31 01:35:58;;;;;;;6.80;6.30;;;;;;;;;;6334822;22;20043;-77
2023/03/31 01:38:39;;;;;;;7.60;7.03;;;;;;;;;;6307076;22;20409;-76
2023/03/31 01:41:38;;;;;;;7.32;6.72;;;;;;;;;;6307633;22;20011;-77
2023/03/31 01:44:23;;;;;;;6.50;5.90;;;;;;;;;;6267026;22;20089;-76
2023/03/31 01:46:53;;;;;;;6.30;5.78;;;;;;;;;;6336729;22;20003;-79
2023/03/31 01:49:39;;;;;;;7.07;6.53;;;;;;;;;;6309858;22;20021;-77
2023/03/31 01:52:18;;;;;;;7.70;7.10;;;;;;;;;;6308263;22;20068;-77
2023/03/31 01:54:53;;;;;;;7.25;6.60;;;;;;;;;;6335178;22;20018;-79
2023/03/31 01:57:19;;;;;;;6.85;6.25;;;;;;;;;;6335734;22;20021;-79
2023/03/31 01:59:54;;;;;;;6.50;5.93;;;;;;;;;;6307640;22;20379;-78
2023/03/31 02:02:25;;;;;;;5.97;5.47;;;;;;;;;;6308135;22;20011;-78
2023/03/31 02:04:53;;;;;;;6.47;5.97;;;;;;;;;;6307769;22;20086;-78
2023/03/31 02:07:23;;;;;;;5.82;5.40;;;;;;;;;;6307278;22;20031;-79
2023/03/31 02:09:50;;;;;;;6.60;6.10;;;;;;;;;;6307040;22;20015;-79
2023/03/31 02:12:17;;;;;;;5.72;5.22;;;;;;;;;;6281422;22;20081;-79
2023/03/31 02:14:44;;;;;;;5.55;5.18;;;;;;;;;;6280912;22;20011;-78
2023/03/31 02:17:12;;;;;;;8.25;7.65;;;;;;;;;;6307303;22;20018;-78
2023/03/31 02:19:39;;;;;;;7.30;6.80;;;;;;;;;;6307238;22;20049;-79
2023/03/31 02:22:05;;;;;;;9.60;6.18;;;;;;;;;;6334422;22;20438;-76
2023/03/31 02:24:31;;;;;;;9.95;6.50;;;;;;;;;;6280793;22;20010;-77
2023/03/31 02:27:08;;;;;;;7.40;6.80;;;;;;;;;;6334397;22;20019;-78
2023/03/31 02:29:34;;;;;;;6.90;6.40;;;;;;;;;;6306701;22;20351;-78
2023/03/31 02:32:00;;;;;;;4.95;4.60;;;;;;;;;;6306712;22;20010;-78
2023/03/31 02:34:27;;;;;;;6.03;5.50;;;;;;;;;;6281341;22;20119;-79
2023/03/31 02:36:53;;;;;;;4.80;4.40;;;;;;;;;;6306890;22;20034;-80
2023/03/31 02:39:20;;;;;;;6.07;5.65;;;;;;;;;;6281266;22;20486;-79
2023/03/31 02:41:46;;;;;;;6.22;5.82;;;;;;;;;;6307505;22;20007;-79
2023/03/31 02:44:13;;;;;;;6.85;6.38;;;;;;;;;;6308244;22;20011;-79
2023/03/31 02:46:39;;;;;;;3.80;3.60;;;;;;;;;;6306963;22;20085;-79
2023/03/31 02:49:05;;;;;;;4.53;4.22;;;;;;;;;;6334881;22;20093;-78
2023/03/31 02:51:47;;;;;;;6.00;5.50;;;;;;;;;;6306723;22;20038;-79
2023/03/31 02:54:13;;;;;;;5.20;4.90;;;;;;;;;;6306682;22;20148;-79
2023/03/31 02:57:09;;;;;;;5.40;4.45;;;;;;;;;;6306665;22;20006;-80
2023/03/31 02:59:56;;;;;;;5.63;5.22;;;;;;;;;;6308837;22;20021;-80
2023/03/31 03:02:37;;;;;;;5.45;4.95;;;;;;;;;;6307525;22;20063;-78
2023/03/31 03:05:07;;;;;;;4.78;4.47;;;;;;;;;;6306808;22;20037;-78
2023/03/31 03:07:44;;;;;;;6.05;5.65;;;;;;;;;;6308892;22;20506;-80
2023/03/31 03:10:20;;;;;;;5.10;4.75;;;;;;;;;;6308147;22;20462;-80
2023/03/31 03:12:49;;;;;;;4.25;3.97;;;;;;;;;;6307280;22;20018;-79
2023/03/31 03:15:35;;;;;;;5.43;5.13;;;;;;;;;;6335235;22;20038;-77
2023/03/31 03:18:01;;;;;;;4.50;4.20;;;;;;;;;;6307798;22;20007;-78
2023/03/31 03:20:27;;;;;;;3.75;3.45;;;;;;;;;;6333929;22;20451;-79
2023/03/31 03:22:53;;;;;;;5.82;4.50;;;;;;;;;;6310984;22;20046;-78
2023/03/31 03:25:23;;;;;;;6.38;5.88;;;;;;;;;;6338586;22;20012;-78
2023/03/31 03:27:51;;;;;;;4.95;4.55;;;;;;;;;;6308775;22;20014;-76
2023/03/31 03:30:17;;;;;;;5.45;5.05;;;;;;;;;;6335812;22;20395;-76
2023/03/31 03:32:45;;;;;;;7.15;6.40;;;;;;;;;;6309138;22;20097;-78
2023/03/31 03:35:11;;;;;;;6.10;5.70;;;;;;;;;;6336839;22;20084;-76
2023/03/31 03:37:37;;;;;;;7.45;6.72;;;;;;;;;;6337372;22;20097;-76
2023/03/31 03:40:06;;;;;;;5.78;5.38;;;;;;;;;;6310246;22;20136;-78
2023/03/31 03:42:32;;;;;;;4.78;4.18;;;;;;;;;;6309796;22;20007;-77
2023/03/31 03:44:58;;;;;;;5.20;4.80;;;;;;;;;;6310126;22;20015;-77
2023/03/31 03:47:24;;;;;;;6.45;5.95;;;;;;;;;;6337878;22;20052;-76
2023/03/31 03:49:50;;;;;;;5.88;5.47;;;;;;;;;;6338084;22;20014;-75
2023/03/31 03:52:16;;;;;;;6.07;5.57;;;;;;;;;;6311885;22;20014;-75
2023/03/31 03:54:42;;;;;;;5.68;5.28;;;;;;;;;;6338521;22;20014;-76
2023/03/31 03:57:09;;;;;;;6.70;6.05;;;;;;;;;;6342011;22;20415;-76
2023/03/31 03:59:35;;;;;;;6.45;6.05;;;;;;;;;;6316525;22;20067;-75
2023/03/31 04:02:01;;;;;;;5.60;5.20;;;;;;;;;;6291067;22;20034;-77
2023/03/31 04:04:27;;;;;;;5.60;5.10;;;;;;;;;;6319859;22;20021;-76
2023/03/31 04:06:53;;;;;;;5.05;4.75;;;;;;;;;;6318109;22;20015;-77
2023/03/31 04:09:19;;;;;;;7.47;6.72;;;;;;;;;;6345604;22;20011;-77
2023/03/31 04:11:46;;;;;;;6.70;6.20;;;;;;;;;;6343959;22;20010;-76
2023/03/31 04:14:12;;;;;;;4.15;3.85;;;;;;;;;;6318526;22;20083;-78
2023/03/31 04:16:39;;;;;;;5.50;5.10;;;;;;;;;;6340117;22;20019;-77
2023/03/31 04:19:05;;;;;;;7.22;6.72;;;;;;;;;;6309462;22;20101;-75
2023/03/31 04:21:33;;;;;;;10.20;7.97;;;;;;;;;;6337716;22;20067;-77
2023/03/31 04:24:03;;;;;;;10.15;9.43;;;;;;;;;;6337214;22;20500;-75
2023/03/31 04:26:37;;;;;;;8.07;5.38;;;;;;;;;;6337670;22;20465;-78
2023/03/31 04:29:06;;;;;;;6.90;6.18;;;;;;;;;;6337732;22;20010;-77
2023/03/31 04:31:32;;;;;;;6.63;6.10;;;;;;;;;;6335340;22;20015;-77
2023/03/31 04:34:05;;;;;;;7.10;6.50;;;;;;;;;;6331821;22;20026;-75
2023/03/31 04:36:32;;;;;;;7.97;7.30;;;;;;;;;;6333240;22;20006;-76
2023/03/31 04:38:57;;;;;;;9.15;8.45;;;;;;;;;;6333620;22;20011;-76
2023/03/31 04:41:23;;;;;;;9.85;8.85;;;;;;;;;;6304738;22;20014;-78
2023/03/31 04:43:50;;;;;;;9.52;7.72;;;;;;;;;;6332153;22;20010;-77
2023/03/31 04:46:16;;;;;;;8.25;7.00;;;;;;;;;;6333259;22;20014;-76
2023/03/31 04:48:42;;;;;;;10.20;9.40;;;;;;;;;;6308554;22;20034;-76
2023/03/31 04:51:09;;;;;;;7.50;6.90;;;;;;;;;;6336183;22;20102;-75
2023/03/31 04:53:35;;;;;;;7.97;7.30;;;;;;;;;;6336160;22;20115;-76
2023/03/31 04:56:01;;;;;;;8.00;7.38;;;;;;;;;;6308446;22;20007;-75
2023/03/31 04:58:27;;;;;;;7.85;7.22;;;;;;;;;;6334715;22;20424;-76
2023/03/31 05:00:53;;;;;;;8.93;8.23;;;;;;;;;;6305993;22;20007;-76
2023/03/31 05:03:20;;;;;;;10.20;9.25;;;;;;;;;;6335861;22;20010;-75
2023/03/31 05:05:46;;;;;;;7.07;6.53;;;;;;;;;;6339936;22;20007;-75
2023/03/31 05:08:12;;;;;;;8.15;7.45;;;;;;;;;;6312221;22;20017;-75
2023/03/31 05:10:38;;;;;;;13.85;9.75;;;;;;;;;;6314079;22;20007;-75
2023/03/31 05:13:04;;;;;;;8.63;7.82;;;;;;;;;;6342446;22;20370;-76
2023/03/31 05:15:30;;;;;;;8.70;7.80;;;;;;;;;;6343571;22;20040;-77
2023/03/31 05:17:56;;;;;;;18.92;10.43;;;;;;;;;;6344256;22;20118;-76
2023/03/31 05:20:22;;;;;;;9.45;8.65;;;;;;;;;;6343750;22;20034;-76
2023/03/31 05:22:49;;;;;;;7.60;7.10;;;;;;;;;;6337066;22;20007;-76
2023/03/31 05:25:17;;;;;;;7.55;6.85;;;;;;;;;;6309378;22;20014;-76
2023/03/31 05:27:44;;;;;;;7.45;6.80;;;;;;;;;;6336144;22;20017;-77
2023/03/31 05:30:10;;;;;;;10.60;9.50;;;;;;;;;;6308512;22;20018;-75
2023/03/31 05:32:36;;;;;;;8.77;7.88;;;;;;;;;;6308525;22;20038;-75
2023/03/31 05:35:02;;;;;;;9.27;8.38;;;;;;;;;;6308189;22;20064;-76
2023/03/31 05:37:29;;;;;;;9.93;9.10;;;;;;;;;;6336623;22;20014;-76
2023/03/31 05:39:55;;;;;;;8.13;7.53;;;;;;;;;;6308278;22;20417;-75
2023/03/31 05:42:23;;;;;;;17.65;13.07;;;;;;;;;;6336361;22;20624;-76
2023/03/31 05:44:49;;;;;;;14.73;10.55;;;;;;;;;;6335883;22;20010;-75
2023/03/31 05:47:15;;;;;;;8.15;7.45;;;;;;;;;;6337423;22;20034;-75
2023/03/31 05:49:42;;;;;;;5.88;5.45;;;;;;;;;;6310817;22;20041;-75
2023/03/31 05:52:08;;;;;;;6.47;5.97;;;;;;;;;;6342095;22;20010;-75
2023/03/31 05:54:34;;;;;;;8.63;7.35;;;;;;;;;;6314546;22;20057;-73
2023/03/31 05:57:00;;;;;;;8.40;7.68;;;;;;;;;;6344057;22;20017;-75
2023/03/31 05:59:26;;;;;;;7.68;7.05;;;;;;;;;;6345569;22;20018;-75
2023/03/31 06:01:52;;;;;;;7.40;6.40;;;;;;;;;;6349913;22;20006;-75
2023/03/31 06:04:18;;;;;;;9.55;8.35;;;;;;;;;;6347066;22;20021;-75
2023/03/31 06:06:45;;;;;;;7.68;7.05;;;;;;;;;;6342044;22;20013;-76
2023/03/31 06:09:11;;;;;;;8.05;7.30;;;;;;;;;;6339758;22;20014;-75
2023/03/31 06:11:37;;;;;;;10.57;9.68;;;;;;;;;;6337482;22;20018;-77
2023/03/31 06:14:03;;;;;;;8.60;7.95;;;;;;;;;;6307490;22;20050;-77
2023/03/31 06:16:29;;;;;;;8.88;8.18;;;;;;;;;;6336284;22;20006;-77
2023/03/31 06:18:55;;;;;;;9.80;8.90;;;;;;;;;;6282081;22;20451;-77
2023/03/31 06:21:21;;;;;;;8.05;7.00;;;;;;;;;;6336119;22;20017;-76
2023/03/31 06:23:47;;;;;;;9.43;8.52;;;;;;;;;;6307925;22;20483;-76
2023/03/31 06:26:14;;;;;;;10.35;9.55;;;;;;;;;;6328910;22;20466;-77
2023/03/31 06:28:40;;;;;;;9.55;8.65;;;;;;;;;;6334285;22;20050;-76
2023/03/31 06:31:07;;;;;;;10.52;9.63;;;;;;;;;;6281091;22;20076;-75
2023/03/31 06:33:33;;;;;;;9.35;7.93;;;;;;;;;;6306991;22;20685;-79
2023/03/31 06:36:00;;;;;;;9.50;8.60;;;;;;;;;;6334399;22;20010;-75
2023/03/31 06:38:26;;;;;;;9.55;8.65;;;;;;;;;;6306918;22;20033;-76
2023/03/31 06:40:52;;;;;;;10.18;9.32;;;;;;;;;;6306012;22;20007;-76
2023/03/31 06:43:19;;;;;;;10.15;8.27;;;;;;;;;;6306202;22;20083;-76
2023/03/31 06:45:45;;;;;;;14.27;11.23;;;;;;;;;;6333837;22;20006;-77
2023/03/31 06:48:11;;;;;;;9.95;9.20;;;;;;;;;;6306621;22;20014;-75
2023/03/31 06:50:37;;;;;;;10.80;10.00;;;;;;;;;;6334517;22;20439;-78
2023/03/31 06:53:04;;;;;;;11.30;10.43;;;;;;;;;;6333481;22;20080;-78
2023/03/31 06:55:31;;;;;;;14.77;10.93;;;;;;;;;;6305019;22;20019;-78
2023/03/31 06:57:57;;;;;;;10.48;9.48;;;;;;;;;;6331890;22;20007;-78
2023/03/31 07:00:24;;;;;;;10.68;8.95;;;;;;;;;;6332653;22;20459;-78
2023/03/31 07:02:50;;;;;;;11.15;10.15;;;;;;;;;;6305870;22;20015;-78
2023/03/31 07:05:18;;;;;;;10.38;9.40;;;;;;;;;;6332852;22;20085;-78
2023/03/31 07:07:44;;;;;;;8.68;7.82;;;;;;;;;;6306182;22;20015;-78
2023/03/31 07:10:10;;;;;;;12.07;10.55;;;;;;;;;;6336925;22;20077;-79
2023/03/31 07:12:36;;;;;;;9.85;8.95;;;;;;;;;;6339741;22;20022;-79
2023/03/31 07:15:03;;;;;;;9.00;8.10;;;;;;;;;;6338140;22;20014;-78
2023/03/31 07:17:29;;;;;;;11.93;9.23;;;;;;;;;;6337652;22;20068;-78
2023/03/31 07:19:55;;;;;;;11.40;10.27;;;;;;;;;;6281549;22;20363;-78
2023/03/31 07:22:21;;;;;;;12.82;10.75;;;;;;;;;;6335259;22;20010;-79
2023/03/31 07:24:47;;;;;;;10.45;8.20;;;;;;;;;;6334745;22;20025;-78
2023/03/31 07:27:13;;;;;;;8.80;7.95;;;;;;;;;;6335099;22;20014;-78
2023/03/31 07:29:39;;;;;;;12.18;10.95;;;;;;;;;;6335159;22;20351;-78
2023/03/31 07:32:05;;;;;;;10.75;9.27;;;;;;;;;;6334844;22;20064;-78
2023/03/31 07:34:31;;;;;;;14.05;9.82;;;;;;;;;;6281884;22;20029;-78
2023/03/31 07:36:57;;;;;;;13.65;12.35;;;;;;;;;;6334893;22;20010;-79
2023/03/31 07:39:23;;;;;;;11.75;9.57;;;;;;;;;;6307566;22;20015;-78
2023/03/31 07:41:49;;;;;;;13.57;10.30;;;;;;;;;;6307271;22;20082;-78
2023/03/31 07:44:16;;;;;;;12.80;11.57;;;;;;;;;;6335241;22;20022;-78
2023/03/31 07:46:42;;;;;;;26.80;13.20;;;;;;;;;;6335124;22;20456;-78
2023/03/31 07:49:14;;;;;;;15.27;10.15;;;;;;;;;;6333596;22;20056;-77
2023/03/31 07:51:40;;;;;;;10.95;9.82;;;;;;;;;;6335066;22;20053;-78
2023/03/31 07:54:07;;;;;;;10.38;9.27;;;;;;;;;;6334386;22;20097;-78
2023/03/31 07:56:33;;;;;;;9.73;8.68;;;;;;;;;;6307554;22;20007;-79
2023/03/31 07:58:59;;;;;;;13.40;9.15;;;;;;;;;;6334890;22;20014;-78
2023/03/31 08:01:27;;;;;;;12.60;9.15;;;;;;;;;;6311321;22;20030;-79
2023/03/31 08:03:54;;;;;;;13.90;11.90;;;;;;;;;;6338369;22;20015;-79
2023/03/31 08:06:21;;;;;;;14.50;8.70;;;;;;;;;;6307673;22;20114;-78
2023/03/31 08:08:50;;;;;;;21.73;13.90;;;;;;;;;;6309477;22;20080;-78
2023/03/31 08:11:16;;;;;;;18.13;10.88;;;;;;;;;;6337003;22;20089;-79
2023/03/31 08:13:42;;;;;;;13.43;12.00;;;;;;;;;;6336833;22;20026;-79
2023/03/31 08:16:08;;;;;;;15.10;8.82;;;;;;;;;;6336228;22;20011;-79
2023/03/31 08:18:37;;;;;;;11.45;8.02;;;;;;;;;;6284315;22;20021;-78
2023/03/31 08:21:03;;;;;;;9.68;7.43;;;;;;;;;;6336464;22;20011;-78
2023/03/31 08:23:29;;;;;;;8.73;7.80;;;;;;;;;;6337106;22;20052;-79
2023/03/31 08:26:05;;;;;;;11.60;7.55;;;;;;;;;;6309265;22;20336;-79
2023/03/31 08:28:31;;;;;;;13.52;8.60;;;;;;;;;;6283616;22;20015;-79
2023/03/31 08:31:02;;;;;;;11.15;8.98;;;;;;;;;;6308768;22;20097;-79
2023/03/31 08:33:28;;;;;;;14.18;8.93;;;;;;;;;;6336363;22;20023;-78
2023/03/31 08:35:54;;;;;;;11.93;7.40;;;;;;;;;;6336277;22;20007;-78
2023/03/31 08:38:20;;;;;;;7.80;7.10;;;;;;;;;;6282953;22;20114;-78
2023/03/31 08:40:46;;;;;;;7.38;6.65;;;;;;;;;;6309172;22;20413;-78
2023/03/31 08:43:18;;;;;;;8.77;7.45;;;;;;;;;;6308575;22;20090;-79
2023/03/31 08:45:45;;;;;;;8.88;7.90;;;;;;;;;;6283390;22;20017;-78
2023/03/31 08:48:21;;;;;;;14.02;7.78;;;;;;;;;;6282887;22;20071;-78
2023/03/31 08:50:48;;;;;;;19.92;10.27;;;;;;;;;;6308725;22;20021;-77
2023/03/31 08:53:25;;;;;;;10.18;9.18;;;;;;;;;;6308575;22;20068;-78
2023/03/31 08:55:52;;;;;;;9.77;8.88;;;;;;;;;;6282989;22;20015;-78
2023/03/31 08:58:27;;;;;;;11.65;10.15;;;;;;;;;;6308998;22;20015;-79
2023/03/31 09:00:56;;;;;;;10.45;6.53;;;;;;;;;;6336001;22;20030;-79
2023/03/31 09:03:22;;;;;;;9.75;8.90;;;;;;;;;;6336039;22;20016;-78
2023/03/31 09:05:54;;;;;;;10.98;9.13;;;;;;;;;;6282725;22;20006;-79
2023/03/31 09:08:23;;;;;;;8.75;7.95;;;;;;;;;;6336251;22;20013;-78
2023/03/31 09:10:57;;;;;;;16.85;7.95;;;;;;;;;;6336038;22;20015;-78
2023/03/31 09:13:43;;;;;;;11.52;8.65;;;;;;;;;;6308470;22;20098;-78
2023/03/31 09:16:17;;;;;;;13.48;10.05;;;;;;;;;;6283292;22;20075;-78
2023/03/31 09:18:46;;;;;;;9.77;6.72;;;;;;;;;;6336054;22;20034;-78
2023/03/31 09:21:38;;;;;;;11.65;7.80;;;;;;;;;;6335615;22;20098;-78
2023/03/31 09:24:05;;;;;;;13.20;9.25;;;;;;;;;;6329838;22;20007;-78
2023/03/31 09:26:39;;;;;;;9.93;7.82;;;;;;;;;;6308026;22;20038;-78
2023/03/31 09:29:09;;;;;;;9.57;8.25;;;;;;;;;;6307735;22;20032;-78
2023/03/31 09:31:35;;;;;;;12.30;9.48;;;;;;;;;;6308331;22;20029;-78
2023/03/31 09:34:01;;;;;;;10.00;9.00;;;;;;;;;;6308135;22;20022;-78
2023/03/31 09:36:27;;;;;;;9.15;7.85;;;;;;;;;;6335743;22;20007;-77
2023/03/31 09:38:55;;;;;;;8.60;7.60;;;;;;;;;;6335978;22;20018;-79
2023/03/31 09:41:21;;;;;;;10.82;9.88;;;;;;;;;;6336140;22;20439;-78
2023/03/31 09:43:48;;;;;;;8.15;7.45;;;;;;;;;;6336228;22;20026;-77
2023/03/31 09:46:20;;;;;;;8.93;8.02;;;;;;;;;;6335373;22;20078;-77
2023/03/31 09:49:06;;;;;;;12.07;6.75;;;;;;;;;;6335353;22;20011;-78
2023/03/31 09:51:33;;;;;;;11.98;9.98;;;;;;;;;;6335508;22;20494;-78
2023/03/31 09:54:05;;;;;;;10.77;9.02;;;;;;;;;;6308132;22;20026;-77
2023/03/31 09:56:41;;;;;;;8.90;8.10;;;;;;;;;;6335912;22;20030;-78
2023/03/31 09:59:11;;;;;;;16.35;10.27;;;;;;;;;;6335397;22;20010;-78
2023/03/31 10:01:37;;;;;;;9.77;8.80;;;;;;;;;;6308312;22;20015;-78
2023/03/31 10:04:06;;;;;;;12.75;9.23;;;;;;;;;;6308096;22;20018;-77
2023/03/31 10:06:32;;;;;;;9.30;8.40;;;;;;;;;;6262016;22;20010;-78
2023/03/31 10:09:01;;;;;;;11.02;10.05;;;;;;;;;;6309444;22;20011;-78
2023/03/31 10:11:27;;;;;;;14.05;8.20;;;;;;;;;;6282900;22;20574;-76
2023/03/31 10:14:02;;;;;;;9.63;8.35;;;;;;;;;;6334851;22;20360;-78
2023/03/31 10:16:28;;;;;;;10.27;7.95;;;;;;;;;;6307441;22;20007;-77
2023/03/31 10:18:56;;;;;;;10.98;8.85;;;;;;;;;;6306799;22;20101;-78
2023/03/31 10:21:25;;;;;;;10.63;9.73;;;;;;;;;;6334006;22;20013;-79
2023/03/31 10:23:51;;;;;;;12.57;10.88;;;;;;;;;;6333358;22;20015;-78
2023/03/31 10:26:19;;;;;;;11.63;10.52;;;;;;;;;;6332918;22;20011;-78
2023/03/31 10:28:48;;;;;;;9.85;8.85;;;;;;;;;;6305949;22;20010;-78
2023/03/31 10:31:14;;;;;;;13.48;8.48;;;;;;;;;;6332128;22;20010;-77
2023/03/31 10:33:43;;;;;;;14.05;12.13;;;;;;;;;;6332924;22;20018;-78
2023/03/31 10:36:15;;;;;;;11.93;9.50;;;;;;;;;;6307930;22;20017;-77
2023/03/31 10:38:42;;;;;;;10.45;9.45;;;;;;;;;;6308485;22;20024;-78
2023/03/31 10:41:08;;;;;;;16.67;11.32;;;;;;;;;;6308047;22;20017;-76
2023/03/31 10:43:47;;;;;;;14.25;9.95;;;;;;;;;;6334555;22;20097;-78
2023/03/31 10:46:13;;;;;;;10.73;8.77;;;;;;;;;;6254642;22;20057;-77
2023/03/31 10:48:43;;;;;;;10.23;8.38;;;;;;;;;;6333041;22;20432;-77
2023/03/31 10:51:16;;;;;;;8.57;7.68;;;;;;;;;;6333925;22;20014;-77
2023/03/31 10:53:52;;;;;;;10.57;9.43;;;;;;;;;;6307039;22;20087;-78
2023/03/31 10:56:54;;;;;;;11.23;9.98;;;;;;;;;;6334162;22;20010;-79
2023/03/31 10:59:19;;;;;;;;;;;;;;;;;;6208798;23;20099;-79
2023/03/31 11:01:49;;;;;;;9.13;8.23;;;;;;;;;;6309567;22;20283;-79
2023/03/31 11:04:27;;;;;;;15.60;11.85;;;;;;;;;;6334037;22;20006;-78
2023/03/31 11:06:53;;;;;;;15.15;10.57;;;;;;;;;;6334935;22;20038;-79
2023/03/31 11:09:26;;;;;;;18.45;9.68;;;;;;;;;;6334044;22;20435;-79
2023/03/31 11:11:52;;;;;;;14.75;11.27;;;;;;;;;;6334824;22;20010;-79
2023/03/31 11:14:20;;;;;;;11.30;10.20;;;;;;;;;;6333233;22;20033;-78
2023/03/31 11:16:52;;;;;;;9.15;8.25;;;;;;;;;;6335781;22;20063;-79
2023/03/31 11:19:41;;;;;;;10.82;9.73;;;;;;;;;;6281752;22;20015;-79
2023/03/31 11:22:10;;;;;;;9.52;8.52;;;;;;;;;;6318697;22;20799;-78
2023/03/31 11:24:52;;;;;;;10.07;9.07;;;;;;;;;;6335378;22;20015;-80
2023/03/31 11:27:17;;;;;;;11.32;9.63;;;;;;;;;;6300244;22;20090;-75
2023/03/31 11:29:55;;;;;;;16.50;10.55;;;;;;;;;;6333629;22;20656;-75
2023/03/31 11:32:30;;;;;;;13.00;9.63;;;;;;;;;;6306144;22;20007;-75
2023/03/31 11:35:03;;;;;;;10.70;9.15;;;;;;;;;;6334128;22;20520;-75
2023/03/31 11:37:48;;;;;;;12.30;10.45;;;;;;;;;;6306652;22;20450;-77
2023/03/31 11:40:23;;;;;;;11.43;10.07;;;;;;;;;;6306397;22;20022;-78
2023/03/31 11:42:50;;;;;;;10.57;9.48;;;;;;;;;;6335199;22;20014;-76
2023/03/31 11:45:18;;;;;;;12.75;10.02;;;;;;;;;;6336284;22;20003;-79
2023/03/31 11:47:45;;;;;;;13.23;11.93;;;;;;;;;;6308377;22;20022;-79
2023/03/31 11:50:11;;;;;;;13.57;11.30;;;;;;;;;;6307727;22;20098;-75
2023/03/31 11:52:42;;;;;;;12.65;11.25;;;;;;;;;;6307794;22;20019;-74
2023/03/31 11:55:15;;;;;;;15.43;11.02;;;;;;;;;;6305497;22;20056;-75
2023/03/31 11:58:02;;;;;;;15.95;14.25;;;;;;;;;;6308087;22;20014;-75
2023/03/31 12:00:29;;;;;;;17.48;14.02;;;;;;;;;;6287402;22;20018;-74
2023/03/31 12:02:58;;;;;;;20.77;12.07;;;;;;;;;;6335628;22;20445;-75
2023/03/31 12:05:25;;;;;;;16.75;11.75;;;;;;;;;;6335158;22;20025;-76
2023/03/31 12:08:07;;;;;;;18.17;15.07;;;;;;;;;;6335730;22;20056;-75
2023/03/31 12:10:34;;;;;;;13.95;10.43;;;;;;;;;;6283652;22;20010;-76
2023/03/31 12:13:03;;;;;;;13.40;11.95;;;;;;;;;;6310308;22;20019;-74
2023/03/31 12:15:34;;;;;;;11.55;10.10;;;;;;;;;;6296749;22;20562;-75
2023/03/31 12:18:20;;;;;;;15.20;11.73;;;;;;;;;;6331146;22;20011;-78
2023/03/31 12:20:48;;;;;;;13.20;11.38;;;;;;;;;;6334438;22;20017;-77
2023/03/31 12:23:17;;;;;;;12.75;11.43;;;;;;;;;;6305643;22;20421;-77
2023/03/31 12:25:47;;;;;;;10.73;9.30;;;;;;;;;;6279864;22;20014;-75
2023/03/31 12:28:13;;;;;;;14.45;11.40;;;;;;;;;;6334765;22;20017;-75
2023/03/31 12:30:41;;;;;;;13.40;10.85;;;;;;;;;;6335752;22;20011;-77
2023/03/31 12:33:20;;;;;;;12.20;9.80;;;;;;;;;;6307946;22;20410;-76
2023/03/31 12:35:46;;;;;;;11.65;10.35;;;;;;;;;;6308104;22;20014;-77
2023/03/31 12:38:20;;;;;;;14.15;12.75;;;;;;;;;;6282539;22;20007;-79
2023/03/31 12:41:06;;;;;;;11.75;9.57;;;;;;;;;;6308982;22;20014;-79
2023/03/31 12:43:55;;;;;;;14.40;12.80;;;;;;;;;;6336110;22;20021;-81
2023/03/31 12:46:40;;;;;;;16.48;12.60;;;;;;;;;;6323060;22;20015;-75
2023/03/31 12:49:09;;;;;;;11.75;10.50;;;;;;;;;;6335463;22;20006;-78
2023/03/31 12:51:48;;;;;;;18.20;16.30;;;;;;;;;;6308405;22;20358;-77
2023/03/31 12:54:33;;;;;;;25.92;17.17;;;;;;;;;;6306850;22;20023;-79
2023/03/31 12:56:59;;;;;;;16.15;12.25;;;;;;;;;;6308798;22;20496;-78
2023/03/31 12:59:35;;;;;;;18.40;14.98;;;;;;;;;;6308306;22;20007;-79
2023/03/31 13:02:14;;;;;;;18.30;13.98;;;;;;;;;;6309319;22;20022;-79
2023/03/31 13:04:40;;;;;;;11.85;10.68;;;;;;;;;;6335731;22;20472;-76
2023/03/31 13:07:27;;;;;;;18.08;14.25;;;;;;;;;;6335889;22;20006;-77
2023/03/31 13:09:57;;;;;;;15.98;12.75;;;;;;;;;;6292660;22;20010;-78
2023/03/31 13:12:26;;;;;;;13.25;11.73;;;;;;;;;;6315434;22;20392;-81
2023/03/31 13:14:58;;;;;;;12.73;11.43;;;;;;;;;;6312776;22;20019;-81
2023/03/31 13:17:26;;;;;;;12.57;11.32;;;;;;;;;;6311518;22;20034;-79
2023/03/31 13:19:52;;;;;;;13.35;11.40;;;;;;;;;;6313319;22;20340;-82
2023/03/31 13:22:34;;;;;;;20.00;14.48;;;;;;;;;;6282505;22;20018;-78
2023/03/31 13:25:29;;;;;;;20.70;14.07;;;;;;;;;;6333970;22;20037;-75
2023/03/31 13:27:56;;;;;;;19.17;15.10;;;;;;;;;;6286512;22;20013;-75
2023/03/31 13:30:37;;;;;;;19.75;15.60;;;;;;;;;;6333875;22;20022;-74
2023/03/31 13:33:09;;;;;;;24.48;17.83;;;;;;;;;;6333754;22;20045;-74
2023/03/31 13:35:36;;;;;;;22.48;15.40;;;;;;;;;;6280842;22;20094;-73
2023/03/31 13:38:20;;;;;;;17.30;13.63;;;;;;;;;;6306566;22;20363;-74
2023/03/31 13:40:58;;;;;;;23.63;15.60;;;;;;;;;;6334107;22;20097;-75
2023/03/31 13:43:43;;;;;;;20.55;14.52;;;;;;;;;;6334463;22;20010;-78
2023/03/31 13:46:15;;;;;;;19.27;12.63;;;;;;;;;;6334437;22;20010;-75
2023/03/31 13:48:56;;;;;;;23.23;16.73;;;;;;;;;;6307373;22;20463;-79
2023/03/31 13:51:22;;;;;;;;;;;;;;;;;;6310707;22;20454;-79
2023/03/31 13:54:07;;;;;;;20.35;15.65;;;;;;;;;;6306748;22;19936;-76
2023/03/31 13:57:05;;;;;;;19.25;16.25;;;;;;;;;;6335942;22;20018;-78
2023/03/31 13:59:34;;;;;;;15.60;13.68;;;;;;;;;;6284033;22;20011;-78
2023/03/31 14:02:05;;;;;;;27.70;19.10;;;;;;;;;;6334888;22;20058;-82
2023/03/31 14:04:34;;;;;;;17.42;12.05;;;;;;;;;;6281304;22;20006;-79
2023/03/31 14:07:11;;;;;;;13.68;11.60;;;;;;;;;;6310638;22;20146;-80
2023/03/31 14:09:45;;;;;;;20.35;13.32;;;;;;;;;;6312418;22;20007;-79
2023/03/31 14:12:30;;;;;;;16.13;11.60;;;;;;;;;;6356551;22;20014;-82
2023/03/31 14:14:57;;;;;;;18.55;11.93;;;;;;;;;;6338026;22;20480;-82
2023/03/31 14:17:25;;;;;;;19.05;13.70;;;;;;;;;;6345749;22;20064;-81
2023/03/31 14:20:07;;;;;;;18.13;12.73;;;;;;;;;;6293561;22;20470;-80
2023/03/31 14:22:45;;;;;;;16.40;13.02;;;;;;;;;;6336167;22;20003;-81
2023/03/31 14:25:20;;;;;;;20.13;13.25;;;;;;;;;;6339276;22;20018;-78
2023/03/31 14:27:52;;;;;;;15.70;12.00;;;;;;;;;;6337942;22;20018;-83
2023/03/31 14:30:37;;;;;;;16.65;14.05;;;;;;;;;;6336501;22;20007;-76
2023/03/31 14:33:12;;;;;;;21.77;15.93;;;;;;;;;;6334962;22;20059;-76
2023/03/31 14:35:41;;;;;;;17.13;12.38;;;;;;;;;;6340730;22;20038;-79
2023/03/31 14:38:16;;;;;;;14.75;11.48;;;;;;;;;;6307511;22;20011;-78
2023/03/31 14:40:46;;;;;;;18.08;11.95;;;;;;;;;;6310667;22;20018;-79
2023/03/31 14:43:19;;;;;;;17.42;13.75;;;;;;;;;;6308148;22;20080;-79
2023/03/31 14:45:45;;;;;;;17.50;10.80;;;;;;;;;;6279544;22;20026;-77
2023/03/31 14:48:12;;;;;;;16.67;11.88;;;;;;;;;;6334383;22;20082;-76
2023/03/31 14:50:40;;;;;;;18.45;13.52;;;;;;;;;;6281941;22;20019;-78